Time;durP1;ratioP1;P1;durP2;ratioP2;P2;SDS_P1;SDS_P2;PMS_P1;PMS_P2;Temp;Humidity;BMP_temperature;BMP_pressure;BME280_temperature;BME280_humidity;BME280_pressure;Samples;Min_cycle;Max_cycle;Signal;HPM_P1;HPM_P2
2023/07/23 00:05:55;;;;;;;;;;;;;;;16.01;100.00;101069.13;21108601;27;19932;-64
2023/07/23 00:16:17;;;;;;;;;;;;;;;15.99;100.00;101060.50;21105615;27;20779;-63
2023/07/23 00:26:38;;;;;;;;;;;;;;;15.98;100.00;101049.25;21099592;27;19931;-63
2023/07/23 00:37:00;;;;;;;;;;;;;;;15.92;100.00;101028.66;21110017;27;20295;-64
2023/07/23 00:47:23;;;;;;;;;;;;;;;15.88;100.00;101016.66;21101762;27;20358;-63
2023/07/23 00:57:44;;;;;;;;;;;;;;;15.88;100.00;101002.75;21107432;27;19928;-63
2023/07/23 01:08:06;;;;;;;;;;;;;;;15.89;100.00;100975.75;21103567;27;19928;-63
2023/07/23 01:18:28;;;;;;;;;;;;;;;15.84;100.00;100956.88;21104373;27;20896;-63
2023/07/23 01:28:50;;;;;;;;;;;;;;;15.83;100.00;100944.75;21107877;27;20308;-64
2023/07/23 01:39:11;;;;;;;;;;;;;;;15.79;100.00;100940.59;21093085;27;19923;-64
2023/07/23 01:49:33;;;;;;;;;;;;;;;15.79;100.00;100943.19;21096636;27;20680;-64
2023/07/23 01:59:54;;;;;;;;;;;;;;;15.79;100.00;100937.97;21089263;27;19959;-63
2023/07/23 02:10:18;;;;;;;;;;;;;;;15.74;100.00;100919.09;21100783;27;20283;-63
2023/07/23 02:20:41;;;;;;;;;;;;;;;15.73;100.00;100909.59;21115704;27;20288;-63
2023/07/23 02:31:03;;;;;;;;;;;;;;;15.69;100.00;100892.41;21093868;27;19924;-63
2023/07/23 02:41:24;;;;;;;;;;;;;;;15.76;100.00;100888.56;21110831;27;19923;-64
2023/07/23 02:51:46;;;;;;;;;;;;;;;15.79;100.00;100885.78;21064671;27;19980;-63
2023/07/23 03:02:08;;;;;;;;;;;;;;;15.79;100.00;100876.19;21088931;27;19934;-64
2023/07/23 03:12:29;;;;;;;;;;;;;;;15.71;100.00;100869.69;21110286;27;19928;-64
2023/07/23 03:22:51;;;;;;;;;;;;;;;15.69;100.00;100856.72;21097181;27;19927;-64
2023/07/23 03:33:12;;;;;;;;;;;;;;;15.70;100.00;100844.50;21093564;27;20017;-64
2023/07/23 03:43:34;;;;;;;;;;;;;;;15.59;100.00;100816.34;21097162;28;19924;-63
2023/07/23 03:53:55;;;;;;;;;;;;;;;15.67;100.00;100814.22;21090712;28;19935;-64
2023/07/23 04:04:16;;;;;;;;;;;;;;;15.66;100.00;100801.22;21073870;28;19928;-63
2023/07/23 04:14:42;;;;;;;;;;;;;;;15.66;100.00;100790.78;21098326;28;19931;-63
2023/07/23 04:25:05;;;;;;;;;;;;;;;15.68;100.00;100786.34;21084269;28;19924;-63
2023/07/23 04:35:27;;;;;;;;;;;;;;;15.70;100.00;100782.75;21096683;28;19928;-63
2023/07/23 04:45:49;;;;;;;;;;;;;;;15.72;100.00;100767.00;21099389;27;19963;-63
2023/07/23 04:56:10;;;;;;;;;;;;;;;15.78;100.00;100769.28;21092538;27;19928;-63
2023/07/23 05:06:32;;;;;;;;;;;;;;;15.72;100.00;100769.59;21090538;27;19924;-64
2023/07/23 05:16:53;;;;;;;;;;;;;;;15.76;100.00;100765.91;21098952;27;20347;-64
2023/07/23 05:27:15;;;;;;;;;;;;;;;15.82;100.00;100744.72;21094412;27;19924;-64
2023/07/23 05:37:36;;;;;;;;;;;;;;;15.79;100.00;100726.59;21111917;27;19924;-64
2023/07/23 05:47:57;;;;;;;;;;;;;;;15.83;100.00;100705.50;21096295;27;19924;-64
2023/07/23 05:58:19;;;;;;;;;;;;;;;15.87;100.00;100699.19;21089880;27;19950;-64
2023/07/23 06:08:40;;;;;;;;;;;;;;;15.90;100.00;100687.72;21103926;27;20587;-64
2023/07/23 06:19:02;;;;;;;;;;;;;;;16.00;100.00;100697.59;21104194;27;19924;-64
2023/07/23 06:29:25;;;;;;;;;;;;;;;16.00;100.00;100678.50;21078321;27;20018;-64
2023/07/23 06:39:47;;;;;;;;;;;;;;;16.05;100.00;100673.84;21088207;27;20014;-64
2023/07/23 06:50:08;;;;;;;;;;;;;;;16.17;100.00;100657.50;21091367;27;19927;-64
2023/07/23 07:00:30;;;;;;;;;;;;;;;16.22;100.00;100638.97;21097947;27;19940;-64
2023/07/23 07:10:57;;;;;;;;;;;;;;;16.27;100.00;100629.97;21093823;27;20410;-64
2023/07/23 07:21:19;;;;;;;;;;;;;;;16.33;100.00;100616.56;21100224;27;19928;-64
2023/07/23 07:31:40;;;;;;;;;;;;;;;16.48;100.00;100620.91;21109787;27;20026;-64
2023/07/23 07:42:02;;;;;;;;;;;;;;;16.62;100.00;100618.38;21096221;27;19939;-64
2023/07/23 07:52:23;;;;;;;;;;;;;;;16.69;100.00;100614.47;21094004;28;20160;-64
2023/07/23 08:02:45;;;;;;;;;;;;;;;16.91;100.00;100600.97;21108745;27;19931;-64
2023/07/23 08:13:08;;;;;;;;;;;;;;;16.98;100.00;100600.50;21092501;28;19927;-64
2023/07/23 08:23:29;;;;;;;;;;;;;;;17.14;100.00;100595.19;21099887;27;19924;-64
2023/07/23 08:33:51;;;;;;;;;;;;;;;17.28;100.00;100596.97;21107158;27;19924;-65
2023/07/23 08:44:28;;;;;;;;;;;;;;;17.37;100.00;100599.00;21117364;27;19939;-65
2023/07/23 08:54:50;;;;;;;;;;;;;;;17.46;100.00;100604.53;21103617;27;19934;-65
2023/07/23 09:05:12;;;;;;;;;;;;;;;17.51;100.00;100601.63;21103685;27;19928;-65
2023/07/23 09:15:33;;;;;;;;;;;;;;;17.47;100.00;100615.84;21108196;27;20015;-65
2023/07/23 09:25:59;;;;;;;;;;;;;;;17.35;100.00;100629.66;21081475;27;20402;-65
2023/07/23 09:36:21;;;;;;;;;;;;;;;17.29;100.00;100624.81;21102457;27;19924;-64
2023/07/23 09:46:46;;;;;;;;;;;;;;;17.15;100.00;100632.63;21097020;27;19928;-65
2023/07/23 09:57:08;;;;;;;;;;;;;;;17.25;100.00;100633.78;21101580;27;20007;-65
2023/07/23 10:07:30;;;;;;;;;;;;;;;17.18;100.00;100627.25;21095944;27;19963;-65
2023/07/23 10:17:54;;;;;;;;;;;;;;;17.10;100.00;100652.06;21091344;27;19928;-64
2023/07/23 10:28:22;;;;;;;;;;;;;;;17.06;100.00;100645.34;21078339;27;20393;-65
2023/07/23 10:38:44;;;;;;;;;;;;;;;16.88;100.00;100649.03;21098229;27;19924;-65
2023/07/23 10:49:08;;;;;;;;;;;;;;;16.87;100.00;100657.81;21095553;27;20527;-65
2023/07/23 10:59:31;;;;;;;;;;;;;;;16.87;100.00;100646.50;21095196;27;19940;-65
2023/07/23 11:09:56;;;;;;;;;;;;;;;16.88;100.00;100643.78;21086165;27;19959;-65
2023/07/23 11:20:18;;;;;;;;;;;;;;;16.93;100.00;100646.16;21090666;27;19970;-65
2023/07/23 11:30:40;;;;;;;;;;;;;;;17.05;100.00;100645.41;21103455;27;19930;-64
2023/07/23 11:41:02;;;;;;;;;;;;;;;17.12;100.00;100653.75;21100649;27;20387;-64
2023/07/23 11:51:24;;;;;;;;;;;;;;;17.16;100.00;100657.88;21088566;28;19924;-64
2023/07/23 12:01:45;;;;;;;;;;;;;;;17.20;100.00;100656.72;21109250;27;19923;-64
2023/07/23 12:12:11;;;;;;;;;;;;;;;17.30;100.00;100647.41;21104969;27;19923;-64
2023/07/23 12:22:32;;;;;;;;;;;;;;;17.42;100.00;100647.50;21117752;27;19937;-64
2023/07/23 12:32:54;;;;;;;;;;;;;;;17.49;98.54;100641.00;21107672;27;19934;-64
2023/07/23 12:43:15;;;;;;;;;;;;;;;17.53;98.85;100633.78;21094114;27;20474;-64
2023/07/23 12:53:37;;;;;;;;;;;;;;;17.61;100.00;100631.56;21098132;27;19924;-64
2023/07/23 13:03:58;;;;;;;;;;;;;;;17.75;98.49;100634.13;21096831;27;19924;-64
2023/07/23 13:14:20;;;;;;;;;;;;;;;17.77;98.70;100640.13;21111210;27;20440;-64
2023/07/23 13:24:41;;;;;;;;;;;;;;;17.79;97.42;100640.88;21101987;27;19924;-64
2023/07/23 13:35:03;;;;;;;;;;;;;;;17.80;99.10;100632.91;21097298;27;19928;-64
2023/07/23 13:45:24;;;;;;;;;;;;;;;17.73;100.00;100646.47;21089882;27;20422;-64
2023/07/23 13:55:46;;;;;;;;;;;;;;;17.70;100.00;100626.59;21093067;27;19959;-64
2023/07/23 14:06:07;;;;;;;;;;;;;;;17.77;100.00;100642.75;21093093;27;20014;-64
2023/07/23 14:16:29;;;;;;;;;;;;;;;17.83;100.00;100630.13;21099481;27;19951;-64
2023/07/23 14:26:51;;;;;;;;;;;;;;;18.05;100.00;100606.88;21099704;27;19932;-64
2023/07/23 14:37:13;;;;;;;;;;;;;;;18.48;100.00;100599.69;21100903;27;19932;-64
2023/07/23 14:47:34;;;;;;;;;;;;;;;18.64;100.00;100584.59;21084836;27;19951;-64
2023/07/23 14:57:56;;;;;;;;;;;;;;;18.82;97.97;100586.00;21088843;27;19928;-64
2023/07/23 15:08:17;;;;;;;;;;;;;;;19.06;97.51;100581.69;21096851;27;20308;-63
2023/07/23 15:18:39;;;;;;;;;;;;;;;19.32;94.39;100581.72;21092994;27;20014;-64
2023/07/23 15:29:01;;;;;;;;;;;;;;;19.36;94.35;100573.50;21089248;27;20376;-64
2023/07/23 15:39:22;;;;;;;;;;;;;;;19.68;92.59;100569.44;21079048;27;19951;-63
2023/07/23 15:49:44;;;;;;;;;;;;;;;19.72;92.39;100564.81;21073681;28;20008;-63
2023/07/23 16:00:07;;;;;;;;;;;;;;;19.79;92.22;100556.41;21093813;28;20543;-63
2023/07/23 16:10:28;;;;;;;;;;;;;;;19.82;92.59;100553.53;21092336;28;20024;-63
2023/07/23 16:20:50;;;;;;;;;;;;;;;20.10;91.45;100552.34;21090905;28;20019;-63
2023/07/23 16:31:11;;;;;;;;;;;;;;;20.00;92.35;100548.72;21094454;28;19928;-64
2023/07/23 16:41:33;;;;;;;;;;;;;;;19.99;92.88;100552.31;21112955;27;20395;-63
2023/07/23 16:51:54;;;;;;;;;;;;;;;20.04;93.05;100545.75;21107618;27;19935;-63
2023/07/23 17:02:19;;;;;;;;;;;;;;;20.32;92.38;100513.03;21101459;27;19923;-63
2023/07/23 17:12:40;;;;;;;;;;;;;;;20.80;91.75;100504.03;21102677;27;19930;-63
2023/07/23 17:23:02;;;;;;;;;;;;;;;21.05;88.73;100503.00;21097079;27;19924;-64
2023/07/23 17:33:23;;;;;;;;;;;;;;;20.83;88.59;100506.44;21089087;27;19939;-64
2023/07/23 17:43:46;;;;;;;;;;;;;;;20.63;89.73;100506.28;21104416;27;19924;-63
2023/07/23 17:54:07;;;;;;;;;;;;;;;20.53;90.04;100490.38;21078424;27;19930;-63
2023/07/23 18:04:29;;;;;;;;;;;;;;;20.39;90.49;100493.22;21087510;27;20030;-63
2023/07/23 18:14:50;;;;;;;;;;;;;;;20.34;91.24;100484.00;21096671;27;19923;-63
2023/07/23 18:25:12;;;;;;;;;;;;;;;20.32;91.11;100476.25;21095124;27;21019;-63
2023/07/23 18:35:33;;;;;;;;;;;;;;;20.34;91.16;100473.50;21090666;27;19950;-63
2023/07/23 18:45:55;;;;;;;;;;;;;;;20.34;90.51;100474.34;21089950;27;19928;-63
2023/07/23 18:56:16;;;;;;;;;;;;;;;20.21;91.40;100467.50;21095726;27;19940;-63
2023/07/23 19:06:38;;;;;;;;;;;;;;;20.09;92.28;100458.69;21091644;27;19934;-63
2023/07/23 19:16:59;;;;;;;;;;;;;;;20.02;93.24;100468.00;21086457;27;19923;-63
2023/07/23 19:27:21;;;;;;;;;;;;;;;19.98;93.82;100463.91;21090352;27;19928;-63
2023/07/23 19:37:44;;;;;;;;;;;;;;;19.95;93.10;100467.63;21084059;27;19950;-63
2023/07/23 19:48:05;;;;;;;;;;;;;;;19.87;94.70;100461.25;21098012;28;19931;-63
2023/07/23 19:58:27;;;;;;;;;;;;;;;19.85;94.67;100456.13;21085010;28;20376;-63
2023/07/23 20:08:49;;;;;;;;;;;;;;;19.85;93.55;100476.31;21090836;28;20137;-63
2023/07/23 20:19:10;;;;;;;;;;;;;;;19.84;93.37;100474.63;21082588;27;19928;-63
2023/07/23 20:29:32;;;;;;;;;;;;;;;19.80;93.56;100467.91;21100762;27;20520;-63
2023/07/23 20:39:53;;;;;;;;;;;;;;;19.71;94.20;100479.09;21107895;27;19984;-63
2023/07/23 20:50:15;;;;;;;;;;;;;;;19.67;95.08;100498.63;21089387;27;19946;-63
2023/07/23 21:00:37;;;;;;;;;;;;;;;19.61;95.63;100502.56;21098881;27;19959;-63
2023/07/23 21:10:58;;;;;;;;;;;;;;;19.58;97.07;100494.06;21108747;27;19969;-63
2023/07/23 21:21:20;;;;;;;;;;;;;;;19.53;97.43;100478.66;21107758;27;19987;-63
2023/07/23 21:31:41;;;;;;;;;;;;;;;19.44;98.29;100479.31;21100085;27;20387;-63
2023/07/23 21:42:05;;;;;;;;;;;;;;;19.42;98.76;100477.75;21097070;27;19943;-63
2023/07/23 21:52:26;;;;;;;;;;;;;;;19.36;99.64;100472.94;21089857;27;19924;-63
2023/07/23 22:02:48;;;;;;;;;;;;;;;19.29;100.00;100472.50;21103679;27;19924;-63
2023/07/23 22:13:10;;;;;;;;;;;;;;;19.29;100.00;100469.03;21095581;27;19988;-63
2023/07/23 22:23:32;;;;;;;;;;;;;;;19.30;100.00;100460.25;21091617;27;20011;-63
2023/07/23 22:33:56;;;;;;;;;;;;;;;19.32;100.00;100446.06;21090682;27;20536;-63
2023/07/23 22:44:17;;;;;;;;;;;;;;;19.31;100.00;100448.78;21097372;27;20014;-63
2023/07/23 22:54:39;;;;;;;;;;;;;;;19.28;100.00;100454.25;21102953;27;20521;-63
2023/07/23 23:05:01;;;;;;;;;;;;;;;19.28;100.00;100430.66;21089764;27;20307;-63
2023/07/23 23:15:23;;;;;;;;;;;;;;;19.22;100.00;100429.31;21088370;27;19930;-63
2023/07/23 23:25:44;;;;;;;;;;;;;;;19.20;100.00;100428.56;21105212;27;19934;-63
2023/07/23 23:36:06;;;;;;;;;;;;;;;19.20;100.00;100404.09;21088459;27;19935;-63
2023/07/23 23:46:27;;;;;;;;;;;;;;;19.18;100.00;100413.88;21104014;28;19931;-63
2023/07/23 23:56:49;;;;;;;;;;;;;;;19.13;100.00;100403.72;21084905;28;19951;-62
